PWSweather.com
Personal Weather Stations
Station Observations
KMAMEDFI2
Medfield, MA 02052

Medfield, MA 02052

Lat: 42.1900822, Lon: -71.3296889

Elevation: 138

Station Type: Rainwise WS MK-III

http://www.medfieldweather.com

High Low Average
Temperature 35.8°F2.1°C 17.3°F-8.2°C 27.5°F-2.5°C
Dew Point 31.7°F-0.2°C 12.7°F-10.7°C 21.3°F-5.9°C
Winds 11.5 mph 18.5 kmh Calm Calm 3.0 mph SSW4.8 kmh SSW
Wind Gusts 10.4 mph16.7 kmh -- 3.0 mph4.8 kmh
Humidity 95% 46% 79%
Pressure 31.27 in1058.9 mb 30.51 in1033.2 mb -
Precipitation 0.02 in0.5 mm - -
Hour Temp Dew Point Humidity Winds Wind Gusts Pressure Precip Precip Rate Daily Precip Total
12:00 AM 14.1°F-9.9°C 12.4°F-10.9°C 93% 3.5 mph WSW5.6 kmh WSW 2.3 mph3.7 kmh 31.28 in1059.3 mb - 0.00 in0.0 mm 0.00 in0.0 mm
12:10 AM 14.7°F-9.6°C 13.0°F-10.6°C 93% 2.3 mph WSW3.7 kmh WSW 2.3 mph3.7 kmh 31.28 in1059.3 mb - 0.00 in0.0 mm 0.00 in0.0 mm
12:20 AM 15.3°F-9.3°C 13.4°F-10.3°C 92% 3.5 mph SW5.6 kmh SW 3.5 mph5.6 kmh 31.28 in1059.3 mb - 0.00 in0.0 mm 0.00 in0.0 mm
12:30 AM 15.9°F-8.9°C 12.9°F-10.6°C 88% 2.3 mph SW3.7 kmh SW 2.3 mph3.7 kmh 31.27 in1058.9 mb - 0.00 in0.0 mm 0.00 in0.0 mm
12:40 AM 16.4°F-8.7°C 12.9°F-10.6°C 86% 6.9 mph SE11.1 kmh SE 5.8 mph9.3 kmh 31.27 in1058.9 mb - 0.00 in0.0 mm 0.00 in0.0 mm
12:50 AM 16.9°F-8.4°C 12.9°F-10.6°C 84% 2.3 mph SE3.7 kmh SE 2.3 mph3.7 kmh 31.27 in1058.9 mb - 0.00 in0.0 mm 0.00 in0.0 mm
01:00 AM 17.3°F-8.2°C 12.7°F-10.7°C 82% 3.5 mph WSW5.6 kmh WSW 2.3 mph3.7 kmh 31.27 in1058.9 mb - 0.00 in0.0 mm 0.00 in0.0 mm
01:10 AM 17.7°F-7.9°C 13.1°F-10.5°C 82% 3.5 mph WSW5.6 kmh WSW 2.3 mph3.7 kmh 31.27 in1058.9 mb - 0.00 in0.0 mm 0.00 in0.0 mm
01:20 AM 17.9°F-7.8°C 13.1°F-10.5°C 81% 3.5 mph SW5.6 kmh SW 2.3 mph3.7 kmh 31.25 in1058.2 mb - 0.00 in0.0 mm 0.00 in0.0 mm
01:30 AM 18.2°F-7.7°C 13.1°F-10.5°C 80% 3.5 mph SE5.6 kmh SE 2.3 mph3.7 kmh 31.26 in1058.6 mb - 0.00 in0.0 mm 0.00 in0.0 mm
01:40 AM 18.3°F-7.6°C 13.2°F-10.4°C 80% 8.1 mph WSW13.0 kmh WSW 8.1 mph13.0 kmh 31.26 in1058.6 mb - 0.00 in0.0 mm 0.00 in0.0 mm
01:50 AM 18.3°F-7.6°C 12.9°F-10.6°C 79% 4.6 mph N7.4 kmh N 3.5 mph5.6 kmh 31.26 in1058.6 mb - 0.00 in0.0 mm 0.00 in0.0 mm
02:00 AM 18.3°F-7.6°C 12.9°F-10.6°C 79% Calm Calm -- 31.26 in1058.6 mb - 0.00 in0.0 mm 0.00 in0.0 mm
02:10 AM 18.5°F-7.5°C 13.3°F-10.4°C 80% 3.5 mph S5.6 kmh S 2.3 mph3.7 kmh 31.25 in1058.2 mb - 0.00 in0.0 mm 0.00 in0.0 mm
02:20 AM 18.5°F-7.5°C 13.9°F-10.1°C 82% 2.3 mph WSW3.7 kmh WSW 2.3 mph3.7 kmh 31.25 in1058.2 mb - 0.00 in0.0 mm 0.00 in0.0 mm
02:30 AM 18.6°F-7.4°C 13.7°F-10.2°C 81% 3.5 mph S5.6 kmh S 2.3 mph3.7 kmh 31.25 in1058.2 mb - 0.00 in0.0 mm 0.00 in0.0 mm
02:40 AM 18.6°F-7.4°C 13.7°F-10.2°C 81% 9.2 mph N14.8 kmh N 8.1 mph13.0 kmh 31.26 in1058.6 mb - 0.00 in0.0 mm 0.00 in0.0 mm
02:50 AM 18.6°F-7.4°C 14.3°F-9.8°C 83% 4.6 mph SW7.4 kmh SW 3.5 mph5.6 kmh 31.26 in1058.6 mb - 0.00 in0.0 mm 0.00 in0.0 mm
03:00 AM 18.6°F-7.4°C 14.6°F-9.7°C 84% 2.3 mph WNW3.7 kmh WNW 1.2 mph1.9 kmh 31.27 in1058.9 mb - 0.00 in0.0 mm 0.00 in0.0 mm
03:10 AM 18.6°F-7.4°C 14.6°F-9.7°C 84% 1.2 mph SE1.9 kmh SE 1.2 mph1.9 kmh 31.26 in1058.6 mb - 0.00 in0.0 mm 0.00 in0.0 mm
03:20 AM 18.7°F-7.4°C 14.4°F-9.8°C 83% 8.1 mph WSW13.0 kmh WSW 8.1 mph13.0 kmh 31.26 in1058.6 mb - 0.00 in0.0 mm 0.00 in0.0 mm
03:30 AM 18.8°F-7.3°C 14.8°F-9.6°C 84% 6.9 mph W11.1 kmh W 6.9 mph11.1 kmh 31.26 in1058.6 mb - 0.00 in0.0 mm 0.00 in0.0 mm
03:40 AM 18.9°F-7.3°C 14.9°F-9.5°C 84% 3.5 mph S5.6 kmh S 2.3 mph3.7 kmh 31.27 in1058.9 mb - 0.00 in0.0 mm 0.00 in0.0 mm
03:50 AM 18.9°F-7.3°C 15.1°F-9.4°C 85% 2.3 mph SSW3.7 kmh SSW 2.3 mph3.7 kmh 31.27 in1058.9 mb - 0.00 in0.0 mm 0.00 in0.0 mm
04:00 AM 19.1°F-7.2°C 15.1°F-9.4°C 84% 3.5 mph NW5.6 kmh NW 2.3 mph3.7 kmh 31.27 in1058.9 mb - 0.00 in0.0 mm 0.00 in0.0 mm
04:10 AM 19.2°F-7.1°C 14.9°F-9.5°C 83% 11.5 mph SSW18.5 kmh SSW 10.4 mph16.7 kmh 31.27 in1058.9 mb - 0.00 in0.0 mm 0.00 in0.0 mm
04:20 AM 19.3°F-7.1°C 15.3°F-9.3°C 84% 3.5 mph NW5.6 kmh NW 2.3 mph3.7 kmh 31.27 in1058.9 mb - 0.00 in0.0 mm 0.00 in0.0 mm
04:30 AM 19.5°F-6.9°C 16.0°F-8.9°C 86% 2.3 mph S3.7 kmh S 1.2 mph1.9 kmh 31.27 in1058.9 mb - 0.00 in0.0 mm 0.00 in0.0 mm
04:40 AM 19.8°F-6.8°C 15.1°F-9.4°C 82% 8.1 mph ESE13.0 kmh ESE 8.1 mph13.0 kmh 31.27 in1058.9 mb - 0.00 in0.0 mm 0.00 in0.0 mm
04:50 AM 19.9°F-6.7°C 15.8°F-9.0°C 84% Calm Calm 1.2 mph1.9 kmh 31.27 in1058.9 mb - 0.00 in0.0 mm 0.00 in0.0 mm
05:00 AM 20.1°F-6.6°C 15.8°F-9.0°C 83% 2.3 mph E3.7 kmh E 2.3 mph3.7 kmh 31.27 in1058.9 mb - 0.00 in0.0 mm 0.00 in0.0 mm
05:10 AM 20.3°F-6.5°C 15.7°F-9.1°C 82% 3.5 mph SW5.6 kmh SW 2.3 mph3.7 kmh 31.27 in1058.9 mb - 0.00 in0.0 mm 0.00 in0.0 mm
05:20 AM 20.5°F-6.4°C 15.9°F-8.9°C 82% 4.6 mph WSW7.4 kmh WSW 3.5 mph5.6 kmh 31.27 in1058.9 mb - 0.00 in0.0 mm 0.00 in0.0 mm
05:30 AM 20.6°F-6.3°C 15.7°F-9.1°C 81% 4.6 mph SSW7.4 kmh SSW 3.5 mph5.6 kmh 31.27 in1058.9 mb - 0.00 in0.0 mm 0.00 in0.0 mm
05:40 AM 20.8°F-6.2°C 15.9°F-8.9°C 81% 3.5 mph SSW5.6 kmh SSW 6.9 mph11.1 kmh 31.27 in1058.9 mb - 0.00 in0.0 mm 0.00 in0.0 mm
05:50 AM 20.9°F-6.2°C 16.5°F-8.6°C 83% Calm Calm 2.3 mph3.7 kmh 31.27 in1058.9 mb - 0.00 in0.0 mm 0.00 in0.0 mm
06:00 AM 21.2°F-6.0°C 16.0°F-8.9°C 80% 6.9 mph NW11.1 kmh NW 6.9 mph11.1 kmh 31.27 in1058.9 mb - 0.00 in0.0 mm 0.00 in0.0 mm
06:10 AM 21.4°F-5.9°C 16.2°F-8.8°C 80% 1.2 mph S1.9 kmh S 2.3 mph3.7 kmh 31.27 in1058.9 mb - 0.00 in0.0 mm 0.00 in0.0 mm
06:20 AM 21.6°F-5.8°C 16.4°F-8.7°C 80% 3.5 mph SE5.6 kmh SE 3.5 mph5.6 kmh 31.25 in1058.2 mb - 0.00 in0.0 mm 0.00 in0.0 mm
06:30 AM 21.8°F-5.7°C 16.9°F-8.4°C 81% 2.3 mph SE3.7 kmh SE 2.3 mph3.7 kmh 31.26 in1058.6 mb - 0.00 in0.0 mm 0.00 in0.0 mm
06:40 AM 21.8°F-5.7°C 16.6°F-8.6°C 80% 1.2 mph SSE1.9 kmh SSE 1.2 mph1.9 kmh 31.26 in1058.6 mb - 0.00 in0.0 mm 0.00 in0.0 mm
06:50 AM 21.9°F-5.6°C 17.5°F-8.1°C 83% 3.5 mph WSW5.6 kmh WSW 2.3 mph3.7 kmh 31.26 in1058.6 mb - 0.00 in0.0 mm 0.00 in0.0 mm
07:00 AM 22.1°F-5.5°C 17.2°F-8.2°C 81% 2.3 mph SSE3.7 kmh SSE 1.2 mph1.9 kmh 31.27 in1058.9 mb - 0.00 in0.0 mm 0.00 in0.0 mm
07:10 AM 22.2°F-5.4°C 17.0°F-8.3°C 80% 2.3 mph SE3.7 kmh SE 2.3 mph3.7 kmh 31.27 in1058.9 mb - 0.00 in0.0 mm 0.00 in0.0 mm
07:20 AM 22.2°F-5.4°C 17.8°F-7.9°C 83% 1.2 mph NW1.9 kmh NW -- 31.27 in1058.9 mb - 0.00 in0.0 mm 0.00 in0.0 mm
07:30 AM 22.3°F-5.4°C 17.9°F-7.8°C 83% 3.5 mph SE5.6 kmh SE 2.3 mph3.7 kmh 31.27 in1058.9 mb - 0.00 in0.0 mm 0.00 in0.0 mm
07:40 AM 22.4°F-5.3°C 18.3°F-7.6°C 84% 2.3 mph SE3.7 kmh SE 2.3 mph3.7 kmh 31.27 in1058.9 mb - 0.00 in0.0 mm 0.00 in0.0 mm
07:50 AM 22.4°F-5.3°C 17.7°F-7.9°C 82% 4.6 mph SSW7.4 kmh SSW 3.5 mph5.6 kmh 31.27 in1058.9 mb - 0.00 in0.0 mm 0.00 in0.0 mm
08:00 AM 22.4°F-5.3°C 18.3°F-7.6°C 84% 3.5 mph SE5.6 kmh SE 2.3 mph3.7 kmh 31.26 in1058.6 mb - 0.00 in0.0 mm 0.00 in0.0 mm
08:10 AM 22.3°F-5.4°C 18.2°F-7.7°C 84% 3.5 mph SSW5.6 kmh SSW 2.3 mph3.7 kmh 31.27 in1058.9 mb - 0.00 in0.0 mm 0.00 in0.0 mm
08:20 AM 22.2°F-5.4°C 18.1°F-7.7°C 84% 3.5 mph SW5.6 kmh SW 2.3 mph3.7 kmh 31.27 in1058.9 mb - 0.00 in0.0 mm 0.00 in0.0 mm
08:30 AM 22.2°F-5.4°C 18.4°F-7.6°C 85% 2.3 mph SSE3.7 kmh SSE 1.2 mph1.9 kmh 31.27 in1058.9 mb - 0.00 in0.0 mm 0.00 in0.0 mm
08:40 AM 22.2°F-5.4°C 18.6°F-7.4°C 86% 1.2 mph S1.9 kmh S 1.2 mph1.9 kmh 31.27 in1058.9 mb - 0.00 in0.0 mm 0.00 in0.0 mm
08:50 AM 22.2°F-5.4°C 18.7°F-7.4°C 86% 3.5 mph SE5.6 kmh SE 2.3 mph3.7 kmh 31.26 in1058.6 mb - 0.00 in0.0 mm 0.00 in0.0 mm
09:00 AM 22.2°F-5.4°C 18.9°F-7.3°C 87% Calm Calm 5.8 mph9.3 kmh 31.26 in1058.6 mb - 0.00 in0.0 mm 0.00 in0.0 mm
09:10 AM 22.3°F-5.4°C 19.0°F-7.2°C 87% 1.2 mph SW1.9 kmh SW 1.2 mph1.9 kmh 31.24 in1057.9 mb - 0.00 in0.0 mm 0.00 in0.0 mm
09:20 AM 22.5°F-5.3°C 19.0°F-7.2°C 86% 1.2 mph S1.9 kmh S 2.3 mph3.7 kmh 31.21 in1056.9 mb - 0.00 in0.0 mm 0.00 in0.0 mm
09:30 AM 22.8°F-5.1°C 19.0°F-7.2°C 85% 2.3 mph E3.7 kmh E 1.2 mph1.9 kmh 31.19 in1056.2 mb - 0.00 in0.0 mm 0.00 in0.0 mm
09:40 AM 23.1°F-4.9°C 19.0°F-7.2°C 84% 3.5 mph WNW5.6 kmh WNW 2.3 mph3.7 kmh 31.15 in1054.9 mb - 0.00 in0.0 mm 0.00 in0.0 mm
09:50 AM 23.5°F-4.7°C 19.1°F-7.2°C 83% 3.5 mph S5.6 kmh S 5.8 mph9.3 kmh 31.10 in1053.2 mb - 0.00 in0.0 mm 0.00 in0.0 mm
10:00 AM 23.8°F-4.6°C 18.8°F-7.3°C 81% 5.8 mph SE9.3 kmh SE 5.8 mph9.3 kmh 31.06 in1051.8 mb - 0.00 in0.0 mm 0.00 in0.0 mm
10:10 AM 23.9°F-4.5°C 18.3°F-7.6°C 79% Calm Calm 1.2 mph1.9 kmh 31.01 in1050.1 mb - 0.00 in0.0 mm 0.00 in0.0 mm
10:20 AM 24.1°F-4.4°C 17.9°F-7.8°C 77% 2.3 mph SW3.7 kmh SW 1.2 mph1.9 kmh 30.93 in1047.4 mb - 0.00 in0.0 mm 0.00 in0.0 mm
10:30 AM 24.9°F-3.9°C 17.8°F-7.9°C 74% 8.1 mph SE13.0 kmh SE 8.1 mph13.0 kmh 30.85 in1044.7 mb - 0.00 in0.0 mm 0.00 in0.0 mm
10:40 AM 25.8°F-3.4°C 17.4°F-8.1°C 70% Calm Calm 1.2 mph1.9 kmh 30.79 in1042.7 mb - 0.00 in0.0 mm 0.00 in0.0 mm
10:50 AM 26.9°F-2.8°C 17.4°F-8.1°C 67% 1.2 mph S1.9 kmh S 1.2 mph1.9 kmh 30.70 in1039.6 mb - 0.00 in0.0 mm 0.00 in0.0 mm
11:00 AM 27.5°F-2.5°C 16.6°F-8.6°C 63% 3.5 mph SE5.6 kmh SE 2.3 mph3.7 kmh 30.69 in1039.3 mb - 0.00 in0.0 mm 0.00 in0.0 mm
11:10 AM 28.1°F-2.2°C 16.4°F-8.7°C 61% 3.5 mph SW5.6 kmh SW 2.3 mph3.7 kmh 30.68 in1038.9 mb - 0.00 in0.0 mm 0.00 in0.0 mm
11:20 AM 28.9°F-1.7°C 16.7°F-8.5°C 60% 3.5 mph SW5.6 kmh SW 2.3 mph3.7 kmh 30.64 in1037.6 mb - 0.00 in0.0 mm 0.00 in0.0 mm
11:30 AM 29.6°F-1.3°C 16.2°F-8.8°C 57% 4.6 mph WSW7.4 kmh WSW 2.3 mph3.7 kmh 30.63 in1037.3 mb - 0.00 in0.0 mm 0.00 in0.0 mm
11:40 AM 30.1°F-1.1°C 16.3°F-8.7°C 56% 2.3 mph WSW3.7 kmh WSW 2.3 mph3.7 kmh 30.63 in1037.3 mb - 0.00 in0.0 mm 0.00 in0.0 mm
11:50 AM 30.8°F-0.7°C 16.5°F-8.6°C 55% 2.3 mph NW3.7 kmh NW 2.3 mph3.7 kmh 30.63 in1037.3 mb - 0.00 in0.0 mm 0.00 in0.0 mm
12:00 PM 30.9°F-0.6°C 16.2°F-8.8°C 54% 6.9 mph W11.1 kmh W 6.9 mph11.1 kmh 30.63 in1037.3 mb - 0.00 in0.0 mm 0.00 in0.0 mm
12:10 PM 31.4°F-0.3°C 16.7°F-8.5°C 54% 3.5 mph WSW5.6 kmh WSW 2.3 mph3.7 kmh 30.61 in1036.6 mb - 0.00 in0.0 mm 0.00 in0.0 mm
12:20 PM 31.8°F-0.1°C 16.6°F-8.6°C 53% 2.3 mph SSE3.7 kmh SSE 2.3 mph3.7 kmh 30.59 in1035.9 mb - 0.00 in0.0 mm 0.00 in0.0 mm
12:30 PM 32.4°F0.2°C 17.2°F-8.2°C 53% 1.2 mph ESE1.9 kmh ESE 3.5 mph5.6 kmh 30.57 in1035.2 mb - 0.00 in0.0 mm 0.00 in0.0 mm
12:40 PM 32.9°F0.5°C 16.3°F-8.7°C 50% 6.9 mph WNW11.1 kmh WNW 2.3 mph3.7 kmh 30.54 in1034.2 mb - 0.00 in0.0 mm 0.00 in0.0 mm
12:50 PM 33.3°F0.7°C 15.7°F-9.1°C 48% 5.8 mph SSE9.3 kmh SSE 5.8 mph9.3 kmh 30.54 in1034.2 mb - 0.00 in0.0 mm 0.00 in0.0 mm
01:00 PM 33.8°F1.0°C 16.2°F-8.8°C 48% 3.5 mph SSW5.6 kmh SSW 1.2 mph1.9 kmh 30.52 in1033.5 mb - 0.00 in0.0 mm 0.00 in0.0 mm
01:10 PM 34.9°F1.6°C 16.2°F-8.8°C 46% 5.8 mph N9.3 kmh N 5.8 mph9.3 kmh 30.51 in1033.2 mb - 0.00 in0.0 mm 0.00 in0.0 mm
01:20 PM 34.7°F1.5°C 16.0°F-8.9°C 46% 3.5 mph WNW5.6 kmh WNW 2.3 mph3.7 kmh 30.54 in1034.2 mb - 0.00 in0.0 mm 0.00 in0.0 mm
01:30 PM 34.0°F1.1°C 16.3°F-8.7°C 48% 2.3 mph SE3.7 kmh SE 10.4 mph16.7 kmh 30.57 in1035.2 mb - 0.00 in0.0 mm 0.00 in0.0 mm
01:40 PM 34.5°F1.4°C 16.3°F-8.7°C 47% 6.9 mph SE11.1 kmh SE 2.3 mph3.7 kmh 30.53 in1033.9 mb - 0.00 in0.0 mm 0.00 in0.0 mm
01:50 PM 34.6°F1.4°C 15.9°F-8.9°C 46% 1.2 mph S1.9 kmh S 1.2 mph1.9 kmh 30.57 in1035.2 mb - 0.00 in0.0 mm 0.00 in0.0 mm
02:00 PM 34.9°F1.6°C 17.2°F-8.2°C 48% 4.6 mph ESE7.4 kmh ESE 3.5 mph5.6 kmh 30.55 in1034.5 mb - 0.00 in0.0 mm 0.00 in0.0 mm
02:10 PM 34.9°F1.6°C 17.7°F-7.9°C 49% 3.5 mph S5.6 kmh S 2.3 mph3.7 kmh 30.55 in1034.5 mb - 0.00 in0.0 mm 0.00 in0.0 mm
02:20 PM 34.8°F1.6°C 18.9°F-7.3°C 52% 2.3 mph SE3.7 kmh SE 2.3 mph3.7 kmh 30.57 in1035.2 mb - 0.01 in0.3 mm 0.01 in0.3 mm
02:30 PM 35.3°F1.8°C 19.0°F-7.2°C 51% 3.5 mph W5.6 kmh W 2.3 mph3.7 kmh 30.55 in1034.5 mb - 0.00 in0.0 mm 0.01 in0.3 mm
02:40 PM 35.5°F1.9°C 20.0°F-6.7°C 53% 6.9 mph E11.1 kmh E 6.9 mph11.1 kmh 30.55 in1034.5 mb - 0.00 in0.0 mm 0.01 in0.3 mm
02:50 PM 35.6°F2.0°C 21.0°F-6.1°C 55% 2.3 mph W3.7 kmh W 3.5 mph5.6 kmh 30.58 in1035.6 mb - 0.00 in0.0 mm 0.01 in0.3 mm
03:00 PM 35.8°F2.1°C 21.6°F-5.8°C 56% 4.6 mph S7.4 kmh S 5.8 mph9.3 kmh 30.58 in1035.6 mb - 0.00 in0.0 mm 0.01 in0.3 mm
03:10 PM 35.6°F2.0°C 21.9°F-5.6°C 57% 4.6 mph SSE7.4 kmh SSE 5.8 mph9.3 kmh 30.55 in1034.5 mb - 0.00 in0.0 mm 0.01 in0.3 mm
03:20 PM 35.2°F1.8°C 22.7°F-5.2°C 60% 5.8 mph SE9.3 kmh SE 5.8 mph9.3 kmh 30.56 in1034.9 mb - 0.00 in0.0 mm 0.01 in0.3 mm
03:30 PM 34.9°F1.6°C 22.8°F-5.1°C 61% 1.2 mph SSE1.9 kmh SSE 1.2 mph1.9 kmh 30.58 in1035.6 mb - 0.00 in0.0 mm 0.01 in0.3 mm
03:40 PM 34.9°F1.6°C 23.6°F-4.7°C 63% 1.2 mph S1.9 kmh S 1.2 mph1.9 kmh 30.58 in1035.6 mb - 0.01 in0.3 mm 0.02 in0.5 mm
03:50 PM 34.9°F1.6°C 23.2°F-4.9°C 62% 3.5 mph SE5.6 kmh SE 2.3 mph3.7 kmh 30.59 in1035.9 mb - 0.00 in0.0 mm 0.02 in0.5 mm
04:00 PM 34.9°F1.6°C 23.2°F-4.9°C 62% 6.9 mph ESE11.1 kmh ESE 6.9 mph11.1 kmh 30.59 in1035.9 mb - 0.00 in0.0 mm 0.02 in0.5 mm
04:10 PM 34.8°F1.6°C 23.9°F-4.5°C 64% 5.8 mph S9.3 kmh S 6.9 mph11.1 kmh 30.61 in1036.6 mb - 0.00 in0.0 mm 0.02 in0.5 mm
04:20 PM 34.9°F1.6°C 24.3°F-4.3°C 65% 2.3 mph SSE3.7 kmh SSE 3.5 mph5.6 kmh 30.63 in1037.3 mb - 0.00 in0.0 mm 0.02 in0.5 mm
04:30 PM 34.9°F1.6°C 24.3°F-4.3°C 65% 3.5 mph S5.6 kmh S 2.3 mph3.7 kmh 30.62 in1036.9 mb - 0.00 in0.0 mm 0.02 in0.5 mm
04:40 PM 34.7°F1.5°C 24.9°F-3.9°C 67% 3.5 mph S5.6 kmh S 2.3 mph3.7 kmh 30.62 in1036.9 mb - 0.00 in0.0 mm 0.02 in0.5 mm
04:50 PM 34.4°F1.3°C 26.0°F-3.3°C 71% 4.6 mph SE7.4 kmh SE 3.5 mph5.6 kmh 30.63 in1037.3 mb - 0.00 in0.0 mm 0.02 in0.5 mm
05:00 PM 34.4°F1.3°C 26.6°F-3.0°C 73% 5.8 mph SE9.3 kmh SE 9.2 mph14.8 kmh 30.65 in1037.9 mb - 0.00 in0.0 mm 0.02 in0.5 mm
05:10 PM 34.3°F1.3°C 27.5°F-2.5°C 76% 3.5 mph SSE5.6 kmh SSE 3.5 mph5.6 kmh 30.67 in1038.6 mb - 0.00 in0.0 mm 0.02 in0.5 mm
05:20 PM 34.1°F1.2°C 28.3°F-2.1°C 79% 2.3 mph SSE3.7 kmh SSE 2.3 mph3.7 kmh 30.70 in1039.6 mb - 0.00 in0.0 mm 0.02 in0.5 mm
05:30 PM 33.9°F1.1°C 29.0°F-1.7°C 82% 4.6 mph SW7.4 kmh SW 3.5 mph5.6 kmh 30.73 in1040.6 mb - 0.00 in0.0 mm 0.02 in0.5 mm
05:40 PM 33.8°F1.0°C 29.5°F-1.4°C 84% 1.2 mph SE1.9 kmh SE 1.2 mph1.9 kmh 30.74 in1041.0 mb - 0.00 in0.0 mm 0.02 in0.5 mm
05:50 PM 33.7°F0.9°C 29.7°F-1.3°C 85% 1.2 mph SW1.9 kmh SW 1.2 mph1.9 kmh 30.76 in1041.7 mb - 0.00 in0.0 mm 0.02 in0.5 mm
06:00 PM 33.5°F0.8°C 29.8°F-1.2°C 86% 2.3 mph S3.7 kmh S 2.3 mph3.7 kmh 30.78 in1042.3 mb - 0.00 in0.0 mm 0.02 in0.5 mm
06:10 PM 33.6°F0.9°C 30.4°F-0.9°C 88% 4.6 mph S7.4 kmh S 5.8 mph9.3 kmh 30.80 in1043.0 mb - 0.00 in0.0 mm 0.02 in0.5 mm
06:20 PM 33.4°F0.8°C 31.1°F-0.5°C 91% 2.3 mph W3.7 kmh W 3.5 mph5.6 kmh 30.82 in1043.7 mb - 0.00 in0.0 mm 0.02 in0.5 mm
06:30 PM 33.0°F0.6°C 31.7°F-0.2°C 95% 3.5 mph SSE5.6 kmh SSE 2.3 mph3.7 kmh 30.84 in1044.4 mb - 0.00 in0.0 mm 0.02 in0.5 mm
06:40 PM 32.3°F0.2°C 31.1°F-0.5°C 95% 1.2 mph SSW1.9 kmh SSW 1.2 mph1.9 kmh 30.85 in1044.7 mb - 0.00 in0.0 mm 0.02 in0.5 mm
06:50 PM 31.9°F-0.1°C 30.6°F-0.8°C 95% 3.5 mph S5.6 kmh S 2.3 mph3.7 kmh 30.87 in1045.4 mb - 0.00 in0.0 mm 0.02 in0.5 mm
07:00 PM 31.3°F-0.4°C 30.1°F-1.1°C 95% Calm Calm -- 30.88 in1045.7 mb - 0.00 in0.0 mm 0.02 in0.5 mm
07:10 PM 30.8°F-0.7°C 29.3°F-1.5°C 94% 1.2 mph WSW1.9 kmh WSW 1.2 mph1.9 kmh 30.90 in1046.4 mb - 0.00 in0.0 mm 0.02 in0.5 mm
07:20 PM 30.4°F-0.9°C 28.9°F-1.7°C 94% 2.3 mph SE3.7 kmh SE 2.3 mph3.7 kmh 30.91 in1046.7 mb - 0.00 in0.0 mm 0.02 in0.5 mm
07:30 PM 30.3°F-0.9°C 28.8°F-1.8°C 94% 1.2 mph SE1.9 kmh SE 1.2 mph1.9 kmh 30.92 in1047.1 mb - 0.00 in0.0 mm 0.02 in0.5 mm
07:40 PM 30.2°F-1.0°C 28.7°F-1.8°C 94% 2.3 mph WSW3.7 kmh WSW 1.2 mph1.9 kmh 30.93 in1047.4 mb - 0.00 in0.0 mm 0.02 in0.5 mm
07:50 PM 30.2°F-1.0°C 28.7°F-1.8°C 94% 3.5 mph SE5.6 kmh SE 3.5 mph5.6 kmh 30.94 in1047.7 mb - 0.00 in0.0 mm 0.02 in0.5 mm
08:00 PM 30.3°F-0.9°C 28.8°F-1.8°C 94% 3.5 mph SW5.6 kmh SW 2.3 mph3.7 kmh 30.96 in1048.4 mb - 0.00 in0.0 mm 0.02 in0.5 mm
08:10 PM 30.4°F-0.9°C 28.8°F-1.8°C 94% 1.2 mph WNW1.9 kmh WNW 3.5 mph5.6 kmh 30.96 in1048.4 mb - 0.00 in0.0 mm 0.02 in0.5 mm
08:20 PM 30.4°F-0.9°C 28.9°F-1.7°C 94% 6.9 mph NW11.1 kmh NW 6.9 mph11.1 kmh 30.97 in1048.8 mb - 0.00 in0.0 mm 0.02 in0.5 mm
08:30 PM 30.5°F-0.8°C 28.9°F-1.7°C 94% 1.2 mph NW1.9 kmh NW 2.3 mph3.7 kmh 30.98 in1049.1 mb - 0.00 in0.0 mm 0.02 in0.5 mm
08:40 PM 30.5°F-0.8°C 29.0°F-1.7°C 94% 4.6 mph N7.4 kmh N 5.8 mph9.3 kmh 30.98 in1049.1 mb - 0.00 in0.0 mm 0.02 in0.5 mm
08:50 PM 30.5°F-0.8°C 29.0°F-1.7°C 94% 2.3 mph SW3.7 kmh SW 2.3 mph3.7 kmh 30.99 in1049.4 mb - 0.00 in0.0 mm 0.02 in0.5 mm
09:00 PM 30.4°F-0.9°C 28.9°F-1.7°C 94% 1.2 mph SW1.9 kmh SW 2.3 mph3.7 kmh 31.00 in1049.8 mb - 0.00 in0.0 mm 0.02 in0.5 mm
09:10 PM 30.4°F-0.9°C 28.9°F-1.7°C 94% 2.3 mph WNW3.7 kmh WNW 3.5 mph5.6 kmh 31.00 in1049.8 mb - 0.00 in0.0 mm 0.02 in0.5 mm
09:20 PM 30.4°F-0.9°C 28.9°F-1.7°C 94% Calm Calm -- 31.00 in1049.8 mb - 0.00 in0.0 mm 0.02 in0.5 mm
09:30 PM 30.3°F-0.9°C 28.8°F-1.8°C 94% 5.8 mph WSW9.3 kmh WSW 5.8 mph9.3 kmh 31.01 in1050.1 mb - 0.00 in0.0 mm 0.02 in0.5 mm
09:40 PM 30.4°F-0.9°C 28.9°F-1.7°C 94% 3.5 mph SW5.6 kmh SW 2.3 mph3.7 kmh 31.01 in1050.1 mb - 0.00 in0.0 mm 0.02 in0.5 mm
09:50 PM 30.4°F-0.9°C 28.9°F-1.7°C 94% 3.5 mph SW5.6 kmh SW 2.3 mph3.7 kmh 31.02 in1050.5 mb - 0.00 in0.0 mm 0.02 in0.5 mm
10:00 PM 30.3°F-0.9°C 28.8°F-1.8°C 94% 1.2 mph S1.9 kmh S 1.2 mph1.9 kmh 31.02 in1050.5 mb - 0.00 in0.0 mm 0.02 in0.5 mm
10:10 PM 30.2°F-1.0°C 28.7°F-1.8°C 94% 2.3 mph W3.7 kmh W 2.3 mph3.7 kmh 31.02 in1050.5 mb - 0.00 in0.0 mm 0.02 in0.5 mm
10:20 PM 30.4°F-0.9°C 28.8°F-1.8°C 94% Calm Calm 2.3 mph3.7 kmh 31.02 in1050.5 mb - 0.00 in0.0 mm 0.02 in0.5 mm
10:30 PM 30.5°F-0.8°C 29.0°F-1.7°C 94% Calm Calm 2.3 mph3.7 kmh 31.02 in1050.5 mb - 0.00 in0.0 mm 0.02 in0.5 mm
10:40 PM 30.6°F-0.8°C 29.1°F-1.6°C 94% 2.3 mph S3.7 kmh S 1.2 mph1.9 kmh 31.03 in1050.8 mb - 0.00 in0.0 mm 0.02 in0.5 mm
10:50 PM 30.7°F-0.7°C 29.2°F-1.6°C 94% 2.3 mph WSW3.7 kmh WSW 1.2 mph1.9 kmh 31.03 in1050.8 mb - 0.00 in0.0 mm 0.02 in0.5 mm
11:00 PM 30.8°F-0.7°C 29.3°F-1.5°C 94% 3.5 mph SSE5.6 kmh SSE 2.3 mph3.7 kmh 31.03 in1050.8 mb - 0.00 in0.0 mm 0.02 in0.5 mm
11:10 PM 30.8°F-0.7°C 29.3°F-1.5°C 94% 1.2 mph ENE1.9 kmh ENE 1.2 mph1.9 kmh 31.03 in1050.8 mb - 0.00 in0.0 mm 0.02 in0.5 mm
11:20 PM 30.8°F-0.7°C 29.3°F-1.5°C 94% 3.5 mph SW5.6 kmh SW 2.3 mph3.7 kmh 31.04 in1051.1 mb - 0.00 in0.0 mm 0.02 in0.5 mm
11:30 PM 30.9°F-0.6°C 29.4°F-1.4°C 94% 3.5 mph S5.6 kmh S 2.3 mph3.7 kmh 31.04 in1051.1 mb - 0.00 in0.0 mm 0.02 in0.5 mm
11:40 PM 30.8°F-0.7°C 29.3°F-1.5°C 94% 3.5 mph S5.6 kmh S 2.3 mph3.7 kmh 31.04 in1051.1 mb - 0.00 in0.0 mm 0.02 in0.5 mm
11:50 PM 30.9°F-0.6°C 29.4°F-1.4°C 94% 3.5 mph SSW5.6 kmh SSW 2.3 mph3.7 kmh 31.04 in1051.1 mb - 0.00 in0.0 mm 0.02 in0.5 mm